Time;durP1;ratioP1;P1;durP2;ratioP2;P2;SDS_P1;SDS_P2;PMS_P1;PMS_P2;Temp;Humidity;BMP_temperature;BMP_pressure;BME280_temperature;BME280_humidity;BME280_pressure;Samples;Min_cycle;Max_cycle;Signal;HPM_P1;HPM_P2
2022/09/04 00:01:48;;;;;;;6.00;5.33;;;;;;;19.30;66.14;97945.41;8314204;28;20226;-76
2022/09/04 00:05:52;;;;;;;6.90;5.50;;;;;;;19.23;66.47;97946.88;8313497;28;20420;-77
2022/09/04 00:10:08;;;;;;;6.23;5.27;;;;;;;19.26;66.02;97943.97;8315947;28;20232;-77
2022/09/04 00:14:15;;;;;;;7.35;5.38;;;;;;;19.29;65.73;97941.13;8320596;28;20423;-82
2022/09/04 00:18:26;;;;;;;6.77;5.70;;;;;;;19.21;65.96;97954.03;8320461;28;20244;-78
2022/09/04 00:22:32;;;;;;;6.37;3.80;;;;;;;19.22;64.92;97957.50;8320241;28;20236;-77
2022/09/04 00:26:44;;;;;;;6.23;3.90;;;;;;;19.12;64.67;97962.66;8320158;28;20245;-76
2022/09/04 00:30:52;;;;;;;7.53;3.23;;;;;;;19.06;64.46;97971.00;8319817;28;20228;-77
2022/09/04 00:35:06;;;;;;;6.00;3.67;;;;;;;19.02;64.76;97965.16;8319269;28;20293;-77
2022/09/04 00:39:11;;;;;;;6.10;4.37;;;;;;;19.04;65.00;97970.28;8319687;28;20246;-76
2022/09/04 00:43:32;;;;;;;7.33;4.57;;;;;;;18.95;64.92;97972.66;8319526;28;20421;-77
2022/09/04 00:48:00;;;;;;;4.57;3.67;;;;;;;18.97;64.88;97969.09;8319436;28;20257;-76
2022/09/04 00:52:13;;;;;;;7.53;6.83;;;;;;;18.93;65.59;97966.72;8318733;28;20236;-76
2022/09/04 00:56:41;;;;;;;9.73;8.63;;;;;;;18.88;65.91;97979.34;8319294;28;20248;-76
2022/09/04 01:00:46;;;;;;;9.80;8.90;;;;;;;18.81;67.17;97987.81;8319067;28;20528;-77
2022/09/04 01:04:51;;;;;;;36.43;9.63;;;;;;;18.81;67.59;97986.06;8318335;28;20233;-77
2022/09/04 01:09:10;;;;;;;25.23;9.27;;;;;;;18.82;68.03;97987.69;8318825;28;20550;-77
2022/09/04 01:13:18;;;;;;;13.57;8.40;;;;;;;18.86;67.86;97991.75;8318782;28;20230;-78
2022/09/04 01:17:28;;;;;;;82.40;9.10;;;;;;;18.81;68.78;97985.19;8318751;28;20236;-77
2022/09/04 01:21:50;;;;;;;8.90;8.10;;;;;;;18.98;67.59;98002.25;8318477;28;20230;-78
2022/09/04 01:26:01;;;;;;;9.47;8.50;;;;;;;18.99;67.95;98002.13;8318052;28;20225;-78
2022/09/04 01:30:06;;;;;;;9.77;8.67;;;;;;;18.96;68.10;97999.75;8318260;28;20238;-77
2022/09/04 01:34:22;;;;;;;10.13;9.07;;;;;;;18.94;67.53;97991.16;8317973;28;20251;-78
2022/09/04 01:38:33;;;;;;;10.20;9.20;;;;;;;18.65;69.16;97996.00;8318099;28;20546;-79
2022/09/04 01:42:42;;;;;;;11.00;9.00;;;;;;;18.64;69.75;97996.94;8317715;28;20225;-77
2022/09/04 01:46:50;;;;;;;27.60;8.57;;;;;;;18.32;70.80;98003.72;8317763;28;20237;-77
2022/09/04 01:50:58;;;;;;;231.37;10.70;;;;;;;18.31;69.85;97991.53;8316798;28;20226;-79
2022/09/04 01:55:08;;;;;;;39.33;10.27;;;;;;;18.42;69.93;98008.25;8317416;28;20233;-77
2022/09/04 01:59:19;;;;;;;51.70;10.23;;;;;;;18.55;69.18;98001.13;8317252;28;20228;-77
2022/09/04 02:03:27;;;;;;;68.67;9.20;;;;;;;18.23;70.70;97995.72;8317177;28;20237;-78
2022/09/04 02:07:33;;;;;;;23.47;8.20;;;;;;;18.47;69.41;98001.72;8317161;28;20254;-77
2022/09/04 02:11:36;;;;;;;21.67;8.00;;;;;;;18.51;69.23;98002.31;8317019;28;20244;-77
2022/09/04 02:15:45;;;;;;;14.50;7.50;;;;;;;18.59;69.02;98004.34;8316633;28;20228;-77
2022/09/04 02:20:02;;;;;;;8.63;7.60;;;;;;;18.55;69.02;98001.13;8316269;28;20233;-79
2022/09/04 02:24:10;;;;;;;7.07;5.93;;;;;;;18.72;68.01;98012.97;8316654;28;20435;-77
2022/09/04 02:28:22;;;;;;;91.80;7.57;;;;;;;18.35;68.30;98006.13;8316272;28;20296;-78
2022/09/04 02:32:36;;;;;;;16.97;6.17;;;;;;;18.43;68.94;98005.53;8315838;28;20233;-79
2022/09/04 02:36:43;;;;;;;14.70;5.30;;;;;;;18.43;67.91;98007.28;8316262;28;20439;-78
2022/09/04 02:40:50;;;;;;;29.30;5.87;;;;;;;18.25;68.51;98010.34;8316030;28;20255;-78
2022/09/04 02:45:05;;;;;;;7.17;4.80;;;;;;;18.29;68.33;98017.03;8315612;28;20411;-78
2022/09/04 02:49:13;;;;;;;6.70;5.23;;;;;;;18.48;68.38;98016.47;8315733;28;20535;-77
2022/09/04 02:53:24;;;;;;;5.30;4.80;;;;;;;18.49;67.54;98018.16;8315847;28;20235;-77
2022/09/04 02:57:33;;;;;;;18.47;5.90;;;;;;;18.52;67.60;98022.34;8315613;28;20236;-77
2022/09/04 03:01:41;;;;;;;6.40;5.80;;;;;;;18.47;67.85;98014.84;8315467;28;20232;-77
2022/09/04 03:05:56;;;;;;;14.73;6.70;;;;;;;18.46;67.80;98015.78;8314616;28;20415;-77
2022/09/04 03:10:07;;;;;;;24.67;7.87;;;;;;;18.36;67.92;98023.50;8315236;28;20255;-77
2022/09/04 03:14:15;;;;;;;8.03;7.10;;;;;;;18.47;67.63;98022.69;8315458;28;20229;-77
2022/09/04 03:18:24;;;;;;;6.07;5.57;;;;;;;18.44;67.80;98020.28;8315235;28;20229;-77
2022/09/04 03:22:32;;;;;;;6.50;6.00;;;;;;;18.49;67.67;98019.97;8315059;28;20230;-77
2022/09/04 03:26:36;;;;;;;8.00;6.47;;;;;;;18.36;67.90;98018.25;8315114;28;20228;-77
2022/09/04 03:30:39;;;;;;;17.07;6.50;;;;;;;18.34;67.60;98020.16;8314855;28;20237;-77
2022/09/04 03:34:49;;;;;;;6.50;5.80;;;;;;;18.46;67.81;98033.28;8314859;28;20234;-77
2022/09/04 03:39:01;;;;;;;66.57;7.63;;;;;;;17.99;68.70;98025.41;8314561;28;20248;-77
2022/09/04 03:43:19;;;;;;;5.87;5.37;;;;;;;18.31;67.64;98030.03;8314955;28;20229;-77
2022/09/04 03:47:30;;;;;;;6.30;5.80;;;;;;;18.40;67.42;98028.53;8320818;28;20229;-77
2022/09/04 03:51:39;;;;;;;6.67;6.07;;;;;;;18.06;68.26;98025.78;8321118;28;20305;-77
2022/09/04 03:56:01;;;;;;;13.43;6.40;;;;;;;18.22;67.53;98042.06;8321283;28;20224;-77
2022/09/04 04:00:08;;;;;;;5.63;5.23;;;;;;;18.24;67.64;98044.53;8321137;28;20232;-77
2022/09/04 04:04:34;;;;;;;18.57;6.10;;;;;;;17.76;69.01;98046.25;8320772;28;20282;-77
2022/09/04 04:09:11;;;;;;;6.53;5.97;;;;;;;18.10;67.98;98042.97;8320668;28;20228;-76
2022/09/04 04:13:33;;;;;;;6.50;5.90;;;;;;;18.15;67.88;98052.16;8287949;28;20240;-77
2022/09/04 04:17:48;;;;;;;17.10;5.57;;;;;;;17.86;68.63;98059.53;8320623;28;20236;-77
2022/09/04 04:22:04;;;;;;;24.27;6.10;;;;;;;17.86;68.92;98064.78;8319842;28;20234;-77
2022/09/04 04:26:08;;;;;;;43.13;5.63;;;;;;;17.76;68.70;98064.56;8320144;28;20236;-77
2022/09/04 04:30:14;;;;;;;4.80;4.40;;;;;;;17.88;68.42;98064.66;8320182;28;20252;-77
2022/09/04 04:34:21;;;;;;;5.73;5.20;;;;;;;17.80;68.43;98067.81;8319998;28;20236;-77
2022/09/04 04:38:33;;;;;;;12.97;5.10;;;;;;;17.98;68.10;98074.34;8319700;28;20232;-77
2022/09/04 04:42:45;;;;;;;14.57;5.77;;;;;;;18.06;68.13;98076.41;8319454;28;20244;-77
2022/09/04 04:47:02;;;;;;;37.90;7.20;;;;;;;17.79;68.72;98097.56;8319182;28;20229;-77
2022/09/04 04:51:15;;;;;;;7.30;6.70;;;;;;;17.94;68.50;98098.28;8319234;28;20547;-77
2022/09/04 04:55:30;;;;;;;6.70;6.20;;;;;;;18.09;68.03;98102.41;8319099;28;20229;-77
2022/09/04 04:59:39;;;;;;;8.80;7.00;;;;;;;18.14;67.65;98096.81;8319191;28;20229;-77
2022/09/04 05:03:52;;;;;;;7.00;6.37;;;;;;;18.17;68.31;98107.91;8318942;28;20232;-77
2022/09/04 05:08:01;;;;;;;18.50;6.53;;;;;;;18.14;67.53;98115.16;8318619;28;20225;-77
2022/09/04 05:12:16;;;;;;;5.67;5.13;;;;;;;18.18;67.62;98124.47;8319139;28;20443;-77
2022/09/04 05:16:23;;;;;;;6.33;5.83;;;;;;;18.09;67.60;98123.38;8319100;28;20225;-77
2022/09/04 05:20:37;;;;;;;16.03;7.53;;;;;;;17.89;68.13;98123.97;8318863;28;20236;-78
2022/09/04 05:24:49;;;;;;;8.57;6.83;;;;;;;18.19;67.03;98125.31;8318774;28;20232;-77
2022/09/04 05:29:01;;;;;;;7.70;6.90;;;;;;;18.26;66.76;98137.00;8318880;28;20225;-77
2022/09/04 05:33:11;;;;;;;7.90;7.10;;;;;;;18.31;66.56;98140.13;8318706;28;20244;-77
2022/09/04 05:37:19;;;;;;;7.80;7.00;;;;;;;18.26;66.85;98152.72;8318593;28;20235;-77
2022/09/04 05:41:36;;;;;;;9.07;8.17;;;;;;;18.30;66.69;98149.78;8318340;28;20233;-77
2022/09/04 05:45:49;;;;;;;8.37;7.30;;;;;;;18.45;66.40;98155.69;8318268;28;20228;-77
2022/09/04 05:50:09;;;;;;;10.07;7.63;;;;;;;18.34;66.25;98159.09;8317271;28;20247;-77
2022/09/04 05:54:33;;;;;;;8.40;7.43;;;;;;;18.36;66.59;98165.06;8317861;28;20420;-77
2022/09/04 05:58:57;;;;;;;9.17;7.80;;;;;;;18.29;66.84;98171.69;8317722;28;20236;-77
2022/09/04 06:03:21;;;;;;;12.80;8.43;;;;;;;18.41;66.36;98177.00;8317054;28;20233;-77
2022/09/04 06:07:29;;;;;;;7.87;7.17;;;;;;;18.54;65.88;98178.63;8316386;28;20427;-77
2022/09/04 06:11:55;;;;;;;8.60;7.53;;;;;;;18.49;66.84;98183.38;8317559;28;20239;-77
2022/09/04 06:16:10;;;;;;;9.33;8.43;;;;;;;18.46;66.78;98186.19;8317103;28;20231;-77
2022/09/04 06:20:39;;;;;;;7.70;6.80;;;;;;;18.71;66.05;98190.47;8317403;28;20458;-77
2022/09/04 06:25:08;;;;;;;7.63;6.83;;;;;;;19.12;64.34;98189.19;8317018;28;20429;-77
2022/09/04 06:29:28;;;;;;;6.80;6.20;;;;;;;19.01;65.20;98198.84;8316865;28;20216;-77
2022/09/04 06:33:46;;;;;;;8.27;6.63;;;;;;;19.07;65.34;98193.97;8316617;28;20230;-77
2022/09/04 06:38:01;;;;;;;6.90;6.30;;;;;;;19.09;65.40;98204.34;8316248;28;20423;-76
2022/09/04 06:42:11;;;;;;;6.63;6.03;;;;;;;19.44;65.53;98203.44;8316482;28;20229;-77
2022/09/04 06:46:23;;;;;;;7.43;6.63;;;;;;;19.56;64.58;98214.81;8316341;28;20233;-77
2022/09/04 06:50:31;;;;;;;8.90;6.10;;;;;;;19.83;64.21;98217.94;8315904;28;20233;-77
2022/09/04 06:54:47;;;;;;;6.73;5.87;;;;;;;20.03;63.61;98218.16;8316440;28;20229;-77
2022/09/04 06:59:13;;;;;;;5.83;5.23;;;;;;;20.26;63.18;98217.16;8315814;28;20471;-77
2022/09/04 07:03:39;;;;;;;6.03;4.93;;;;;;;20.33;64.11;98219.31;8315417;28;20240;-77
2022/09/04 07:07:49;;;;;;;5.90;5.40;;;;;;;20.53;62.73;98226.41;8315579;28;20235;-76
2022/09/04 07:12:07;;;;;;;7.47;5.77;;;;;;;20.63;62.74;98232.63;8314922;28;20240;-78
2022/09/04 07:16:21;;;;;;;7.00;6.30;;;;;;;20.37;63.00;98241.75;8315461;28;20222;-78
2022/09/04 07:20:31;;;;;;;6.87;6.20;;;;;;;20.57;62.68;98241.00;8315123;28;20851;-77
2022/09/04 07:24:48;;;;;;;9.67;6.13;;;;;;;20.69;62.82;98252.34;8315027;28;20237;-77
2022/09/04 07:29:05;;;;;;;7.13;6.00;;;;;;;20.78;63.42;98259.50;8314597;28;20230;-77
2022/09/04 07:33:14;;;;;;;7.00;6.40;;;;;;;20.90;62.99;98268.19;8314731;28;20232;-78
2022/09/04 07:37:26;;;;;;;10.77;5.93;;;;;;;20.98;62.86;98257.00;8314359;28;20523;-78
2022/09/04 07:41:33;;;;;;;7.07;6.47;;;;;;;21.31;61.80;98266.56;8314671;28;20237;-78
2022/09/04 07:45:46;;;;;;;6.33;5.73;;;;;;;21.61;62.20;98262.31;8314908;28;20229;-76
2022/09/04 07:49:58;;;;;;;8.23;5.90;;;;;;;21.65;61.39;98267.22;8314537;28;20256;-77
2022/09/04 07:54:33;;;;;;;7.67;6.90;;;;;;;21.36;61.51;98279.31;8314514;28;20242;-78
2022/09/04 07:59:06;;;;;;;8.03;6.43;;;;;;;21.55;61.82;98276.88;8314709;28;20235;-79
2022/09/04 08:03:19;;;;;;;6.93;6.23;;;;;;;21.36;62.33;98287.22;8313520;28;20232;-78
2022/09/04 08:07:38;;;;;;;7.30;6.70;;;;;;;21.57;62.16;98293.38;8314927;28;20230;-78
2022/09/04 08:11:52;;;;;;;6.63;5.97;;;;;;;22.54;59.56;98294.75;8314624;28;20240;-78
2022/09/04 08:16:05;;;;;;;7.13;6.47;;;;;;;22.25;59.08;98303.44;8313930;28;20232;-78
2022/09/04 08:20:13;;;;;;;6.27;5.67;;;;;;;22.46;60.35;98303.34;8314238;28;20262;-78
2022/09/04 08:24:40;;;;;;;6.87;6.17;;;;;;;21.93;60.52;98306.19;8314138;28;20229;-78
2022/09/04 08:29:01;;;;;;;7.87;5.60;;;;;;;22.33;60.38;98300.97;8314230;28;20228;-78
2022/09/04 08:33:32;;;;;;;6.73;5.30;;;;;;;23.19;56.65;98300.44;8318801;28;20229;-79
2022/09/04 08:37:42;;;;;;;8.00;6.67;;;;;;;23.31;56.29;98293.19;8320150;28;20403;-78
2022/09/04 08:42:33;;;;;;;6.97;5.37;;;;;;;23.86;55.17;98301.31;8320114;28;20231;-78
2022/09/04 08:47:06;;;;;;;8.30;5.93;;;;;;;24.31;54.02;98303.22;8319795;28;20416;-78
2022/09/04 08:51:46;;;;;;;6.03;5.43;;;;;;;24.82;52.51;98300.16;8319513;28;20233;-79
2022/09/04 08:56:05;;;;;;;5.23;4.60;;;;;;;25.28;51.61;98308.88;8319231;28;20236;-78
2022/09/04 09:00:10;;;;;;;5.20;4.70;;;;;;;25.59;49.70;98313.72;8319993;28;20237;-78
2022/09/04 09:04:32;;;;;;;5.53;5.13;;;;;;;25.59;50.40;98311.09;8318629;28;20263;-79
2022/09/04 09:09:08;;;;;;;6.33;5.13;;;;;;;26.22;49.61;98308.16;8318972;28;20237;-79
2022/09/04 09:13:59;;;;;;;5.23;4.47;;;;;;;26.71;49.02;98307.53;8318619;28;20251;-79
2022/09/04 09:18:21;;;;;;;5.83;5.20;;;;;;;26.17;47.78;98307.81;8318811;28;20346;-79
2022/09/04 09:22:38;;;;;;;5.03;3.87;;;;;;;26.99;47.28;98310.72;8318526;28;20265;-79
2022/09/04 09:26:49;;;;;;;7.03;4.10;;;;;;;27.28;46.92;98312.09;8318129;28;20289;-79
2022/09/04 09:31:25;;;;;;;4.60;4.20;;;;;;;27.16;44.22;98313.41;8317630;28;20231;-79
2022/09/04 09:36:00;;;;;;;4.70;3.90;;;;;;;27.87;43.51;98322.50;8313584;28;20227;-79
2022/09/04 09:40:30;;;;;;;5.33;3.83;;;;;;;27.84;43.35;98328.19;8317810;28;20234;-79
2022/09/04 09:45:05;;;;;;;3.70;3.40;;;;;;;28.24;42.52;98319.28;8316576;28;20241;-79
2022/09/04 09:49:38;;;;;;;5.17;3.70;;;;;;;28.50;43.67;98315.50;8300493;28;20223;-79
2022/09/04 09:54:20;;;;;;;3.87;2.53;;;;;;;28.76;40.88;98314.41;8317438;28;20231;-79
2022/09/04 09:58:55;;;;;;;3.90;2.97;;;;;;;28.79;40.68;98308.75;8317117;28;20430;-80
2022/09/04 10:03:40;;;;;;;3.23;2.63;;;;;;;29.01;41.44;98321.22;8316555;28;20554;-79
2022/09/04 10:08:10;;;;;;;3.40;3.10;;;;;;;28.21;42.06;98310.81;8316833;28;20228;-79
2022/09/04 10:12:42;;;;;;;6.70;2.87;;;;;;;28.85;42.99;98308.03;8291171;28;20233;-79
2022/09/04 10:17:11;;;;;;;3.60;2.23;;;;;;;29.18;42.09;98305.97;8316373;28;20229;-78
2022/09/04 10:21:44;;;;;;;3.00;2.70;;;;;;;29.66;39.80;98311.06;8316427;28;20235;-80
2022/09/04 10:26:19;;;;;;;4.00;2.20;;;;;;;29.71;39.11;98306.00;8311455;28;20228;-78
2022/09/04 10:30:24;;;;;;;2.67;1.90;;;;;;;28.91;41.44;98301.97;8283427;28;20250;-80
2022/09/04 10:34:49;;;;;;;3.10;1.87;;;;;;;28.43;42.19;98301.25;8316295;28;20476;-79
2022/09/04 10:43:53;;;;;;;2.83;1.70;;;;;;;27.13;44.77;98303.09;8316146;28;20228;-79
2022/09/04 10:48:14;;;;;;;2.10;1.77;;;;;;;26.60;45.88;98300.69;8313602;28;20231;-79
2022/09/04 10:52:46;;;;;;;2.53;1.70;;;;;;;26.31;47.17;98296.59;8315819;28;20236;-80
2022/09/04 10:56:56;;;;;;;1.80;1.70;;;;;;;26.02;47.70;98293.47;8315263;28;20223;-77
2022/09/04 11:01:31;;;;;;;3.50;1.40;;;;;;;27.00;42.42;98293.81;8315255;28;20232;-81
2022/09/04 11:06:09;;;;;;;2.70;1.30;;;;;;;28.02;41.18;98296.06;8302965;28;20461;-89
2022/09/04 11:10:28;;;;;;;2.37;1.70;;;;;;;28.52;40.27;98296.72;8315365;28;20233;-83
2022/09/04 11:15:03;;;;;;;2.70;1.53;;;;;;;28.90;39.98;98296.81;8315384;28;20244;-88
2022/09/04 11:19:22;;;;;;;3.47;1.47;;;;;;;29.20;38.67;98285.28;8282093;28;20236;-79
2022/09/04 11:24:12;;;;;;;3.27;1.73;;;;;;;29.13;37.49;98286.19;8315009;28;20230;-82
2022/09/04 11:28:55;;;;;;;3.70;1.50;;;;;;;29.36;37.04;98283.50;8314821;28;20241;-81
2022/09/04 11:33:36;;;;;;;6.07;1.80;;;;;;;29.71;36.01;98281.16;8314571;28;20240;-79
2022/09/04 11:38:01;;;;;;;3.47;1.47;;;;;;;28.33;39.95;98276.63;8287223;28;20232;-77
2022/09/04 11:42:30;;;;;;;3.00;1.40;;;;;;;28.92;39.53;98276.16;8314435;28;20538;-77
2022/09/04 11:46:51;;;;;;;3.97;1.63;;;;;;;29.17;37.72;98282.19;8314575;28;20546;-77
2022/09/04 11:51:27;;;;;;;2.10;1.53;;;;;;;29.72;37.12;98288.16;8313929;28;20235;-78
2022/09/04 11:55:47;;;;;;;1.60;1.30;;;;;;;29.52;37.94;98286.00;8312575;28;20271;-77
2022/09/04 12:00:16;;;;;;;2.57;1.27;;;;;;;29.75;36.32;98282.50;8313977;28;20297;-78
2022/09/04 12:04:35;;;;;;;2.17;1.60;;;;;;;29.86;35.33;98283.88;8309865;28;20238;-77
2022/09/04 12:09:04;;;;;;;2.47;1.20;;;;;;;29.56;35.47;98286.47;8320470;28;20240;-76
2022/09/04 12:13:26;;;;;;;3.10;1.17;;;;;;;29.62;35.84;98286.59;8320000;28;20241;-78
2022/09/04 12:17:55;;;;;;;1.50;1.10;;;;;;;30.13;36.23;98280.53;8320184;28;20226;-78
2022/09/04 12:22:22;;;;;;;2.73;1.10;;;;;;;28.99;35.63;98299.25;8288147;28;20505;-79
2022/09/04 12:26:51;;;;;;;1.93;0.90;;;;;;;29.78;34.18;98290.16;8319885;28;20236;-82
2022/09/04 12:31:12;;;;;;;2.60;1.13;;;;;;;29.96;34.63;98287.91;8319510;28;20261;-79
2022/09/04 12:35:41;;;;;;;2.37;1.00;;;;;;;30.03;33.08;98282.69;8319312;28;20234;-78
2022/09/04 12:40:12;;;;;;;2.17;1.20;;;;;;;30.16;34.31;98277.53;8319556;28;20522;-77
2022/09/04 12:44:21;;;;;;;1.60;1.00;;;;;;;30.40;33.84;98286.25;8319110;28;20231;-79
2022/09/04 12:48:32;;;;;;;0.93;0.80;;;;;;;29.90;33.60;98277.16;8318970;28;20238;-78
2022/09/04 12:52:49;;;;;;;2.23;0.90;;;;;;;30.13;32.80;98277.88;8318974;28;20243;-79
2022/09/04 12:57:14;;;;;;;1.70;1.00;;;;;;;29.28;33.03;98279.06;8318312;28;20246;-77
2022/09/04 13:01:30;;;;;;;1.63;1.10;;;;;;;28.41;34.73;98282.78;8318754;28;20222;-78
2022/09/04 13:05:51;;;;;;;2.20;1.03;;;;;;;28.11;35.45;98284.41;8318434;28;20247;-77
2022/09/04 13:10:02;;;;;;;1.70;0.97;;;;;;;28.03;35.56;98284.44;8318234;28;20393;-78
2022/09/04 13:14:19;;;;;;;1.60;0.83;;;;;;;27.64;34.84;98293.13;8318473;28;20245;-78
2022/09/04 13:18:33;;;;;;;1.33;0.73;;;;;;;28.65;35.00;98287.16;8318177;28;20240;-80
2022/09/04 13:22:54;;;;;;;1.23;0.90;;;;;;;28.05;36.71;98291.22;8318248;28;20399;-79
2022/09/04 13:27:09;;;;;;;1.47;0.87;;;;;;;27.82;37.73;98290.28;8317858;28;20244;-77
2022/09/04 13:31:42;;;;;;;1.37;1.03;;;;;;;27.60;38.23;98284.66;8318044;28;20419;-79
2022/09/04 13:35:57;;;;;;;3.83;0.90;;;;;;;27.52;39.11;98283.84;8316389;28;20240;-79
2022/09/04 13:40:21;;;;;;;1.90;0.97;;;;;;;27.86;36.96;98288.94;8317527;28;20266;-79
2022/09/04 13:44:39;;;;;;;1.53;1.10;;;;;;;28.64;37.39;98285.50;8317685;28;20547;-79
2022/09/04 13:48:44;;;;;;;1.10;0.90;;;;;;;28.46;37.96;98282.22;8317352;28;20228;-78
2022/09/04 13:52:51;;;;;;;1.40;0.97;;;;;;;27.83;38.95;98291.94;8316761;28;20436;-77
2022/09/04 13:56:58;;;;;;;1.00;0.90;;;;;;;27.36;39.42;98282.03;8317129;28;20227;-79
2022/09/04 14:01:07;;;;;;;1.17;0.90;;;;;;;27.10;40.24;98289.16;8316964;28;20240;-78
2022/09/04 14:05:13;;;;;;;1.73;1.10;;;;;;;27.06;40.32;98293.13;8316441;28;20240;-78
2022/09/04 14:09:16;;;;;;;1.57;1.00;;;;;;;26.92;40.24;98289.31;8316602;28;20225;-78
2022/09/04 14:13:30;;;;;;;1.60;1.13;;;;;;;26.83;40.93;98292.94;8316651;28;20239;-78
2022/09/04 14:17:48;;;;;;;1.07;0.80;;;;;;;26.76;41.20;98291.94;8316430;28;20231;-78
2022/09/04 14:22:05;;;;;;;1.63;1.00;;;;;;;26.69;41.10;98299.75;8315960;28;20238;-78
2022/09/04 14:26:13;;;;;;;0.97;0.87;;;;;;;26.59;41.72;98296.38;8316345;28;20246;-79
2022/09/04 14:30:17;;;;;;;2.20;1.20;;;;;;;26.53;42.81;98299.66;8315599;28;20232;-82
2022/09/04 14:34:27;;;;;;;1.00;1.00;;;;;;;26.53;41.86;98294.34;8316305;28;20415;-82
2022/09/04 14:38:41;;;;;;;1.43;1.10;;;;;;;26.47;42.67;98293.16;8316560;28;20242;-77
2022/09/04 14:42:47;;;;;;;2.70;1.07;;;;;;;27.29;40.93;98295.16;8315839;28;20239;-81
2022/09/04 14:47:00;;;;;;;1.20;1.10;;;;;;;27.07;41.60;98302.78;8315068;28;20242;-75
2022/09/04 14:51:14;;;;;;;2.23;1.00;;;;;;;26.72;42.65;98299.41;8315269;28;20530;-77
2022/09/04 14:55:24;;;;;;;1.50;1.20;;;;;;;26.24;41.64;98295.56;8315525;28;20556;-78
2022/09/04 14:59:35;;;;;;;1.40;1.20;;;;;;;26.17;43.10;98302.50;8315666;28;20427;-81
2022/09/04 15:03:45;;;;;;;3.97;1.50;;;;;;;26.00;42.98;98301.59;8315083;28;20240;-87
2022/09/04 15:07:55;;;;;;;2.40;1.43;;;;;;;25.93;42.79;98301.41;8315430;28;20247;-81
2022/09/04 15:12:14;;;;;;;4.53;1.47;;;;;;;25.90;43.80;98317.59;8315031;28;20234;-81
2022/09/04 15:16:29;;;;;;;1.77;1.40;;;;;;;25.83;44.20;98315.72;8315162;28;20417;-82
2022/09/04 15:20:35;;;;;;;1.27;1.10;;;;;;;25.80;44.12;98313.38;8315280;28;20230;-82
2022/09/04 15:24:50;;;;;;;1.20;1.03;;;;;;;25.62;43.68;98313.44;8314991;28;20234;-83
2022/09/04 15:28:56;;;;;;;3.37;1.50;;;;;;;25.62;43.81;98316.91;8314545;28;20236;-84
2022/09/04 15:33:04;;;;;;;2.17;1.30;;;;;;;25.62;44.34;98321.38;8314910;28;20413;-82
2022/09/04 15:37:18;;;;;;;1.70;1.20;;;;;;;25.87;43.59;98317.06;8315023;28;20248;-85
2022/09/04 15:41:27;;;;;;;2.13;1.30;;;;;;;26.22;42.36;98313.47;8314496;28;20231;-84
2022/09/04 15:45:35;;;;;;;4.30;1.30;;;;;;;26.44;42.08;98313.88;8314962;28;20230;-83
2022/09/04 15:49:43;;;;;;;3.50;1.47;;;;;;;26.34;42.80;98306.88;8314640;28;20240;-82
2022/09/04 15:54:00;;;;;;;1.17;1.07;;;;;;;26.43;42.70;98296.31;8314068;28;20237;-79
2022/09/04 15:58:11;;;;;;;1.10;1.00;;;;;;;26.40;42.39;98304.59;8315060;28;20258;-85
2022/09/04 16:02:23;;;;;;;2.63;1.40;;;;;;;26.16;42.25;98297.34;8314806;28;20235;-84
2022/09/04 16:06:30;;;;;;;1.57;1.03;;;;;;;26.11;42.75;98295.19;8314337;28;20244;-86
2022/09/04 16:10:49;;;;;;;1.50;1.27;;;;;;;25.93;42.39;98295.25;8314289;28;20424;-83
2022/09/04 16:14:55;;;;;;;2.03;1.20;;;;;;;26.04;42.52;98300.28;8313887;28;20246;-81
2022/09/04 16:19:08;;;;;;;1.80;1.27;;;;;;;25.99;42.56;98296.44;8314409;28;20230;-81
2022/09/04 16:23:13;;;;;;;2.40;1.20;;;;;;;25.88;43.37;98295.69;8314378;28;20233;-81
2022/09/04 16:27:20;;;;;;;1.77;1.20;;;;;;;25.81;43.02;98307.91;8314149;28;20415;-81
2022/09/04 16:31:30;;;;;;;1.50;1.40;;;;;;;25.78;43.16;98310.91;8314102;28;20292;-80
2022/09/04 16:35:36;;;;;;;1.73;1.10;;;;;;;25.52;43.07;98300.28;8313684;28;20431;-82
2022/09/04 16:39:47;;;;;;;1.53;1.00;;;;;;;25.59;43.37;98305.78;8313525;28;20232;-85
2022/09/04 16:44:09;;;;;;;1.13;1.00;;;;;;;25.50;43.60;98303.06;8313533;28;20229;-84
2022/09/04 16:48:18;;;;;;;4.37;1.30;;;;;;;25.38;43.66;98301.69;8313922;28;20568;-82
2022/09/04 16:52:46;;;;;;;2.40;1.20;;;;;;;25.27;43.67;98302.75;8316302;28;20273;-84
2022/09/04 16:56:52;;;;;;;2.87;1.00;;;;;;;25.18;43.74;98301.78;8319102;28;20238;-82
2022/09/04 17:01:16;;;;;;;1.43;1.13;;;;;;;25.15;44.31;98307.41;8319238;28;20542;-84
2022/09/04 17:05:26;;;;;;;2.00;1.13;;;;;;;25.08;44.47;98311.66;8320086;28;20244;-87
2022/09/04 17:09:38;;;;;;;1.53;1.37;;;;;;;25.02;45.46;98311.41;8318984;28;20229;-86
2022/09/04 17:13:47;;;;;;;7.40;1.60;;;;;;;24.94;46.50;98309.53;8318872;28;20257;-84
2022/09/04 17:17:53;;;;;;;2.57;1.20;;;;;;;24.92;46.37;98311.50;8318620;28;20226;-82
2022/09/04 17:26:55;;;;;;;18.37;2.00;;;;;;;24.75;46.86;98314.00;8322358;28;20237;-83
2022/09/04 17:31:22;;;;;;;2.40;1.30;;;;;;;24.71;48.15;98303.81;8321312;28;20228;-79
2022/09/04 17:35:31;;;;;;;1.63;1.30;;;;;;;24.63;48.72;98301.94;8318936;28;20236;-78
2022/09/04 17:39:59;;;;;;;1.60;1.30;;;;;;;24.57;49.65;98303.34;8318599;28;20331;-77
2022/09/04 17:44:34;;;;;;;1.97;1.67;;;;;;;24.48;50.30;98312.16;8318600;28;20235;-78
2022/09/04 17:48:40;;;;;;;2.40;1.43;;;;;;;24.40;51.29;98314.72;8318580;28;20228;-81
2022/09/04 17:52:58;;;;;;;3.23;1.67;;;;;;;24.32;51.27;98317.28;8318048;28;20230;-77
2022/09/04 17:57:05;;;;;;;3.20;1.83;;;;;;;24.17;52.40;98324.84;8317761;28;20238;-79
2022/09/04 18:01:11;;;;;;;8.97;6.17;;;;;;;24.11;52.72;98330.72;8317713;28;20235;-78
2022/09/04 18:05:21;;;;;;;3.83;2.57;;;;;;;24.05;53.66;98332.16;8316287;28;20254;-78
2022/09/04 18:09:29;;;;;;;2.90;1.70;;;;;;;23.96;53.99;98328.53;8318157;28;20233;-78
2022/09/04 18:13:39;;;;;;;2.97;1.70;;;;;;;23.90;55.03;98342.34;8317617;28;20266;-79
2022/09/04 18:17:49;;;;;;;4.63;2.67;;;;;;;23.80;54.39;98345.00;8316813;28;20229;-78
2022/09/04 18:21:54;;;;;;;4.90;2.10;;;;;;;23.77;54.44;98349.72;8316602;28;20415;-77
2022/09/04 18:26:22;;;;;;;2.13;1.90;;;;;;;23.76;55.33;98356.81;8316902;28;20235;-78
2022/09/04 18:30:29;;;;;;;4.63;2.20;;;;;;;23.71;55.10;98352.94;8316949;28;20227;-77
2022/09/04 18:34:56;;;;;;;3.33;1.73;;;;;;;23.56;55.63;98353.38;8316208;28;20239;-77
2022/09/04 18:39:26;;;;;;;4.83;1.70;;;;;;;23.43;55.22;98356.28;8316596;28;20233;-78
2022/09/04 18:43:32;;;;;;;2.43;1.80;;;;;;;23.34;55.70;98362.44;8316583;28;20241;-76
2022/09/04 18:47:57;;;;;;;3.10;1.93;;;;;;;23.29;56.05;98369.94;8315747;28;20225;-77
2022/09/04 18:52:26;;;;;;;3.83;2.07;;;;;;;23.26;56.04;98372.84;8316120;28;20241;-78
2022/09/04 18:56:36;;;;;;;4.87;2.00;;;;;;;23.23;55.98;98379.25;8315954;28;20238;-77
2022/09/04 19:00:43;;;;;;;2.80;1.90;;;;;;;23.15;56.67;98387.03;8316216;28;20233;-77
2022/09/04 19:04:50;;;;;;;5.50;2.00;;;;;;;23.04;56.62;98381.88;8315513;28;20237;-77
2022/09/04 19:08:53;;;;;;;5.53;2.00;;;;;;;22.99;56.64;98387.53;8315239;28;20525;-77
2022/09/04 19:13:07;;;;;;;3.23;1.77;;;;;;;22.90;56.65;98393.63;8315780;28;20227;-76
2022/09/04 19:17:13;;;;;;;2.10;1.90;;;;;;;22.81;56.15;98392.63;8315261;28;20238;-78
2022/09/04 19:21:29;;;;;;;2.30;1.70;;;;;;;22.73;56.56;98391.63;8315018;28;20466;-77
2022/09/04 19:25:34;;;;;;;2.13;1.97;;;;;;;22.63;56.59;98392.44;8314793;28;20385;-77
2022/09/04 19:29:42;;;;;;;4.33;2.17;;;;;;;22.62;56.57;98400.50;8314812;28;20234;-77
2022/09/04 19:33:47;;;;;;;2.77;2.00;;;;;;;22.62;57.03;98400.50;8314644;28;20224;-78
2022/09/04 19:37:55;;;;;;;2.90;2.20;;;;;;;22.55;56.44;98394.91;8314213;28;20247;-78
2022/09/04 19:42:22;;;;;;;2.13;1.90;;;;;;;22.53;56.41;98403.94;8314525;28;20229;-79
2022/09/04 19:46:53;;;;;;;4.13;2.17;;;;;;;22.44;56.63;98393.19;8314332;28;20235;-78
2022/09/04 19:50:59;;;;;;;2.20;1.80;;;;;;;22.42;56.70;98397.78;8314276;28;20225;-77
2022/09/04 19:55:36;;;;;;;4.33;2.10;;;;;;;22.30;56.83;98393.56;8314054;28;20232;-76
2022/09/04 19:59:40;;;;;;;3.30;1.97;;;;;;;22.20;56.35;98396.13;8314400;28;20229;-75
2022/09/04 20:03:49;;;;;;;2.47;1.90;;;;;;;22.21;57.10;98392.50;8313591;28;20237;-75
2022/09/04 20:07:56;;;;;;;2.67;2.20;;;;;;;22.23;56.89;98392.38;8313736;28;20331;-75
2022/09/04 20:12:05;;;;;;;3.83;2.20;;;;;;;22.18;57.95;98395.44;8314321;28;20228;-75